Time;durP1;ratioP1;P1;durP2;ratioP2;P2;SDS_P1;SDS_P2;PMS_P1;PMS_P2;Temp;Humidity;BMP_temperature;BMP_pressure;BME280_temperature;BME280_humidity;BME280_pressure;Samples;Min_cycle;Max_cycle;Signal;HPM_P1;HPM_P2
2021/04/26 00:00:29;;;;;;;7.05;3.05;;;3.40;94.20;;;;;;5085950;28;20467;-62
2021/04/26 00:02:56;;;;;;;9.93;3.03;;;3.30;94.50;;;;;;5086315;28;20041;-62
2021/04/26 00:05:22;;;;;;;9.13;4.60;;;3.30;95.40;;;;;;5085782;28;20051;-62
2021/04/26 00:07:48;;;;;;;5.10;2.92;;;3.50;96.00;;;;;;5080672;28;20068;-62
2021/04/26 00:10:15;;;;;;;8.63;3.00;;;3.60;96.20;;;;;;5067382;28;20057;-62
2021/04/26 00:12:43;;;;;;;8.27;3.20;;;3.60;95.50;;;;;;5085692;28;20044;-62
2021/04/26 00:15:13;;;;;;;6.82;2.90;;;3.50;95.40;;;;;;5085691;28;20496;-62
2021/04/26 00:17:38;;;;;;;8.93;3.55;;;3.30;95.90;;;;;;5085037;28;20048;-62
2021/04/26 00:20:09;;;;;;;10.15;3.35;;;3.10;96.10;;;;;;5085564;28;20055;-62
2021/04/26 00:22:37;;;;;;;9.50;3.08;;;2.90;96.40;;;;;;5085856;28;20041;-63
2021/04/26 00:25:07;;;;;;;10.07;3.95;;;2.80;96.90;;;;;;5085129;28;20051;-62
2021/04/26 00:27:36;;;;;;;10.57;3.92;;;2.70;97.40;;;;;;5085124;28;20085;-62
2021/04/26 00:30:05;;;;;;;11.02;3.95;;;2.60;97.70;;;;;;5084799;28;20049;-63
2021/04/26 00:32:34;;;;;;;10.05;3.25;;;2.40;97.70;;;;;;5084952;28;20075;-63
2021/04/26 00:35:00;;;;;;;10.52;3.28;;;2.40;98.10;;;;;;5084887;28;20079;-63
2021/04/26 00:37:26;;;;;;;9.70;3.33;;;2.30;98.50;;;;;;5084982;28;20110;-63
2021/04/26 00:39:52;;;;;;;7.90;2.90;;;2.20;98.60;;;;;;5085260;28;20497;-63
2021/04/26 00:42:18;;;;;;;11.38;4.32;;;2.20;98.40;;;;;;5084973;28;20049;-63
2021/04/26 00:44:44;;;;;;;8.18;3.20;;;2.20;98.80;;;;;;5084922;28;20044;-63
2021/04/26 00:47:10;;;;;;;11.45;3.45;;;2.10;99.20;;;;;;5084835;28;20076;-63
2021/04/26 00:49:35;;;;;;;11.88;4.20;;;2.00;99.60;;;;;;5084523;28;20047;-63
2021/04/26 00:52:01;;;;;;;10.23;4.13;;;1.90;99.90;;;;;;5067278;28;20052;-62
2021/04/26 00:54:28;;;;;;;12.05;4.00;;;1.80;99.90;;;;;;5084707;28;20062;-63
2021/04/26 00:56:54;;;;;;;6.45;3.20;;;1.90;99.90;;;;;;5084563;28;20053;-62
2021/04/26 00:59:21;;;;;;;7.72;3.60;;;2.00;99.90;;;;;;5084539;28;20105;-62
2021/04/26 01:01:47;;;;;;;10.05;3.38;;;2.00;99.90;;;;;;5084549;28;20044;-63
2021/04/26 01:04:12;;;;;;;9.55;4.00;;;2.00;99.90;;;;;;5084369;28;20064;-63
2021/04/26 01:06:39;;;;;;;11.05;3.55;;;2.00;99.90;;;;;;5084108;28;20045;-63
2021/04/26 01:09:05;;;;;;;9.75;4.43;;;2.10;99.90;;;;;;5084336;28;20080;-62
2021/04/26 01:11:49;;;;;;;10.18;4.03;;;2.10;99.90;;;;;;5084420;28;20048;-62
2021/04/26 01:14:25;;;;;;;12.77;3.67;;;2.00;99.90;;;;;;5073943;28;20070;-62
2021/04/26 01:16:58;;;;;;;8.32;3.67;;;1.90;99.90;;;;;;5085611;28;20177;-63
2021/04/26 01:19:45;;;;;;;9.18;3.35;;;1.90;99.90;;;;;;5078750;28;20339;-63
2021/04/26 01:22:26;;;;;;;9.15;4.35;;;1.80;99.90;;;;;;5088568;28;20519;-63
2021/04/26 01:25:11;;;;;;;9.20;3.90;;;1.80;99.90;;;;;;5088447;28;20048;-63
2021/04/26 01:27:46;;;;;;;8.30;3.58;;;2.00;99.90;;;;;;5088759;28;20054;-63
2021/04/26 01:30:37;;;;;;;6.78;3.25;;;2.20;99.90;;;;;;5089299;28;20098;-63
2021/04/26 01:33:11;;;;;;;12.43;4.00;;;2.30;99.90;;;;;;5089438;28;20054;-63
2021/04/26 01:35:37;;;;;;;12.07;4.53;;;2.20;99.90;;;;;;5089230;28;20075;-62
2021/04/26 01:38:11;;;;;;;10.52;4.18;;;2.20;99.90;;;;;;5089173;28;20052;-63
2021/04/26 01:40:41;;;;;;;10.75;4.35;;;2.10;99.90;;;;;;5087871;28;20558;-63
2021/04/26 01:43:08;;;;;;;11.10;4.28;;;2.00;99.90;;;;;;5088396;28;20040;-63
2021/04/26 01:45:35;;;;;;;9.70;4.15;;;1.90;99.90;;;;;;5089181;28;20055;-63
2021/04/26 01:48:01;;;;;;;9.23;3.97;;;1.70;99.90;;;;;;5087918;28;20040;-63
2021/04/26 01:50:27;;;;;;;11.75;4.70;;;1.80;99.90;;;;;;5087773;28;20052;-64
2021/04/26 01:52:54;;;;;;;9.15;4.18;;;1.80;99.90;;;;;;5088146;28;20120;-63
2021/04/26 01:55:22;;;;;;;9.80;4.38;;;1.70;99.90;;;;;;5070492;28;20096;-63
2021/04/26 01:57:50;;;;;;;10.57;4.70;;;1.70;99.90;;;;;;5087697;28;20040;-62
2021/04/26 02:00:27;;;;;;;12.30;4.05;;;1.50;99.90;;;;;;5087691;28;20101;-62
2021/04/26 02:02:54;;;;;;;25.25;4.43;;;1.30;99.90;;;;;;5087776;28;20048;-63
2021/04/26 02:05:21;;;;;;;10.07;4.47;;;1.20;99.90;;;;;;5087852;28;20045;-63
2021/04/26 02:07:49;;;;;;;6.43;3.75;;;1.00;99.90;;;;;;5086971;28;20044;-63
2021/04/26 02:10:18;;;;;;;10.13;4.53;;;1.00;99.90;;;;;;5087464;28;20051;-63
2021/04/26 02:12:45;;;;;;;6.93;3.90;;;0.90;99.90;;;;;;5087614;28;20060;-64
2021/04/26 02:15:14;;;;;;;10.15;4.32;;;0.80;99.90;;;;;;5087455;28;20052;-63
2021/04/26 02:17:42;;;;;;;7.30;4.00;;;0.70;99.90;;;;;;5087369;28;20053;-63
2021/04/26 02:20:11;;;;;;;9.20;4.35;;;0.70;99.90;;;;;;5087098;28;20310;-63
2021/04/26 02:22:36;;;;;;;9.52;4.07;;;0.70;99.90;;;;;;5087281;28;20064;-62
2021/04/26 02:25:06;;;;;;;8.38;3.95;;;0.70;99.90;;;;;;5087562;28;20045;-63
2021/04/26 02:27:32;;;;;;;11.40;4.40;;;0.60;99.90;;;;;;5086289;28;20037;-63
2021/04/26 02:29:58;;;;;;;6.68;3.65;;;0.50;99.90;;;;;;5086977;28;20051;-63
2021/04/26 02:32:29;;;;;;;8.32;3.92;;;0.50;99.90;;;;;;5087246;28;20128;-63
2021/04/26 02:34:58;;;;;;;9.68;4.20;;;0.50;99.90;;;;;;5069314;28;20069;-63
2021/04/26 02:37:46;;;;;;;10.45;4.15;;;0.50;99.90;;;;;;5087247;28;20044;-63
2021/04/26 02:40:16;;;;;;;10.38;3.88;;;0.70;99.90;;;;;;5087624;28;20496;-63
2021/04/26 02:42:44;;;;;;;8.80;3.70;;;0.80;99.90;;;;;;5080169;28;20045;-63
2021/04/26 02:45:14;;;;;;;7.68;3.97;;;0.90;99.90;;;;;;5081612;28;20097;-63
2021/04/26 02:47:43;;;;;;;9.50;4.00;;;1.00;99.90;;;;;;5086991;28;20060;-63
2021/04/26 02:50:11;;;;;;;8.35;4.13;;;1.00;99.90;;;;;;5068424;28;20050;-63
2021/04/26 02:52:38;;;;;;;10.23;5.05;;;1.10;99.90;;;;;;5086859;28;20061;-63
2021/04/26 02:55:06;;;;;;;10.60;4.05;;;1.20;99.90;;;;;;5086500;28;20548;-63
2021/04/26 02:57:33;;;;;;;9.18;3.90;;;1.30;99.90;;;;;;5088001;28;20047;-63
2021/04/26 03:00:06;;;;;;;6.95;3.58;;;1.30;99.90;;;;;;5086452;28;20049;-63
2021/04/26 03:02:32;;;;;;;5.22;3.25;;;1.20;99.90;;;;;;5086907;28;20058;-63
2021/04/26 03:04:58;;;;;;;7.57;3.90;;;1.20;99.90;;;;;;5086267;28;20118;-63
2021/04/26 03:07:26;;;;;;;7.28;3.30;;;1.10;99.90;;;;;;5086023;28;20567;-63
2021/04/26 03:09:52;;;;;;;10.55;4.70;;;0.90;99.90;;;;;;5087873;28;20072;-63
2021/04/26 03:12:18;;;;;;;8.05;3.20;;;0.90;99.90;;;;;;5086985;28;20102;-63
2021/04/26 03:14:44;;;;;;;9.55;3.35;;;0.90;99.90;;;;;;5086497;28;20036;-63
2021/04/26 03:17:11;;;;;;;7.20;3.28;;;1.00;99.90;;;;;;5086558;28;20051;-63
2021/04/26 03:19:40;;;;;;;7.05;3.88;;;1.00;99.90;;;;;;5086292;28;20044;-63
2021/04/26 03:22:07;;;;;;;8.35;4.22;;;1.10;99.90;;;;;;5085971;28;20135;-63
2021/04/26 03:24:32;;;;;;;7.47;3.60;;;1.10;99.90;;;;;;5086429;28;20051;-63
2021/04/26 03:27:00;;;;;;;8.32;3.47;;;1.10;99.90;;;;;;5086127;28;20048;-63
2021/04/26 03:29:27;;;;;;;9.65;3.47;;;1.10;99.90;;;;;;5086549;28;20054;-63
2021/04/26 03:31:54;;;;;;;9.82;3.42;;;1.10;99.90;;;;;;5087057;28;20048;-63
2021/04/26 03:34:20;;;;;;;7.63;3.20;;;1.00;99.90;;;;;;5086420;28;20449;-62
2021/04/26 03:36:48;;;;;;;8.95;3.55;;;0.90;99.90;;;;;;5086078;28;20511;-63
2021/04/26 03:39:15;;;;;;;8.35;3.60;;;0.70;99.90;;;;;;5085612;28;20048;-63
2021/04/26 03:41:42;;;;;;;8.07;3.60;;;0.60;99.90;;;;;;5080665;28;20060;-63
2021/04/26 03:44:16;;;;;;;6.57;3.25;;;0.50;99.90;;;;;;5083488;28;20045;-65
2021/04/26 03:46:46;;;;;;;7.03;3.63;;;0.50;99.90;;;;;;5079973;28;20419;-64
2021/04/26 03:49:12;;;;;;;;;;;0.40;99.90;;;;;;5086690;28;20078;-65
2021/04/26 03:51:37;;;;;;;7.80;3.08;;;0.30;99.90;;;;;;5084912;28;19931;-65
2021/04/26 03:54:04;;;;;;;8.30;3.22;;;0.30;99.90;;;;;;5084538;28;20047;-64
2021/04/26 03:56:30;;;;;;;6.85;3.10;;;0.40;99.90;;;;;;5084108;28;20491;-64
2021/04/26 03:58:55;;;;;;;8.07;3.55;;;0.50;99.90;;;;;;5084969;28;20096;-64
2021/04/26 04:01:21;;;;;;;6.72;3.22;;;0.40;99.90;;;;;;5084813;28;20041;-67
2021/04/26 04:03:47;;;;;;;7.05;3.28;;;0.40;99.90;;;;;;5085539;28;20049;-63
2021/04/26 04:06:13;;;;;;;6.78;3.05;;;0.30;99.90;;;;;;5083749;28;20145;-63
2021/04/26 04:08:38;;;;;;;11.88;3.40;;;0.20;99.90;;;;;;5084797;28;20043;-63
2021/04/26 04:11:04;;;;;;;5.68;2.90;;;0.20;99.90;;;;;;5084577;28;20574;-63
2021/04/26 04:13:30;;;;;;;8.52;3.38;;;0.20;99.90;;;;;;5084889;28;20135;-63
2021/04/26 04:15:56;;;;;;;6.25;2.65;;;0.30;99.90;;;;;;5083695;28;20063;-63
2021/04/26 04:18:21;;;;;;;8.95;3.22;;;0.20;99.90;;;;;;5085229;28;20048;-63
2021/04/26 04:20:47;;;;;;;6.30;3.30;;;0.30;99.90;;;;;;5085176;28;20040;-63
2021/04/26 04:23:13;;;;;;;7.82;3.50;;;0.30;99.90;;;;;;5047910;28;20053;-63
2021/04/26 04:25:39;;;;;;;6.22;3.03;;;0.30;99.90;;;;;;5082544;28;20051;-64
2021/04/26 04:28:05;;;;;;;6.80;3.47;;;0.30;99.90;;;;;;5085351;28;20044;-64
2021/04/26 04:30:30;;;;;;;6.80;3.90;;;0.30;99.90;;;;;;5084561;28;20048;-63
2021/04/26 04:32:57;;;;;;;6.60;3.40;;;0.30;99.90;;;;;;5084524;28;20081;-61
2021/04/26 04:35:23;;;;;;;7.53;3.55;;;0.20;99.90;;;;;;5084577;28;20055;-61
2021/04/26 04:37:48;;;;;;;6.30;3.10;;;0.30;99.90;;;;;;5084371;28;20044;-63
2021/04/26 04:40:14;;;;;;;7.40;3.40;;;0.30;99.90;;;;;;5084637;28;20045;-63
2021/04/26 04:42:40;;;;;;;6.45;3.35;;;0.40;99.90;;;;;;5084325;28;20051;-63
2021/04/26 04:45:06;;;;;;;7.15;3.45;;;0.40;99.90;;;;;;5083388;28;20084;-63
2021/04/26 04:47:32;;;;;;;7.75;4.00;;;0.40;99.90;;;;;;5083512;28;20040;-62
2021/04/26 04:49:58;;;;;;;8.23;3.50;;;0.40;99.90;;;;;;5084167;28;20041;-63
2021/04/26 04:52:24;;;;;;;6.93;3.05;;;0.40;99.90;;;;;;5083208;28;20071;-63
2021/04/26 04:54:49;;;;;;;8.93;3.97;;;0.50;99.90;;;;;;5083402;28;20047;-61
2021/04/26 04:57:16;;;;;;;6.43;3.15;;;0.80;99.90;;;;;;5083779;28;20052;-62
2021/04/26 04:59:41;;;;;;;9.38;3.40;;;0.80;99.90;;;;;;5083278;28;20045;-62
2021/04/26 05:02:07;;;;;;;6.75;3.60;;;0.80;99.90;;;;;;5082755;28;20066;-62
2021/04/26 05:04:33;;;;;;;13.90;3.67;;;0.80;99.90;;;;;;5085288;28;20079;-62
2021/04/26 05:06:59;;;;;;;9.23;4.10;;;0.80;99.90;;;;;;5083025;28;20076;-66
2021/04/26 05:09:24;;;;;;;8.70;3.67;;;0.90;99.90;;;;;;5083699;28;20466;-66
2021/04/26 05:11:50;;;;;;;8.68;4.00;;;1.00;99.90;;;;;;5083982;28;20045;-65
2021/04/26 05:14:16;;;;;;;7.85;4.00;;;1.10;99.90;;;;;;5085456;28;20496;-64
2021/04/26 05:16:42;;;;;;;6.70;3.40;;;1.20;99.90;;;;;;5085215;28;20037;-64
2021/04/26 05:19:08;;;;;;;7.75;3.03;;;1.20;99.90;;;;;;5085150;28;20505;-64
2021/04/26 05:21:33;;;;;;;8.80;3.58;;;1.30;99.90;;;;;;5085153;28;20052;-64
2021/04/26 05:23:59;;;;;;;8.88;3.88;;;1.40;99.90;;;;;;5084832;28;20040;-64
2021/04/26 05:26:26;;;;;;;9.13;3.42;;;1.40;99.90;;;;;;5080291;28;20068;-64
2021/04/26 05:28:52;;;;;;;11.27;3.60;;;1.60;99.90;;;;;;5080661;28;20101;-63
2021/04/26 05:31:19;;;;;;;8.65;4.00;;;1.80;99.90;;;;;;5080257;28;20507;-64
2021/04/26 05:33:45;;;;;;;21.92;5.00;;;2.00;99.90;;;;;;5064065;28;20048;-64
2021/04/26 05:36:11;;;;;;;11.10;3.90;;;2.20;99.90;;;;;;5069567;28;20112;-63
2021/04/26 05:38:37;;;;;;;10.35;3.58;;;2.30;99.90;;;;;;5085259;28;20056;-64
2021/04/26 05:41:03;;;;;;;7.80;3.80;;;2.40;99.90;;;;;;5085295;28;20057;-64
2021/04/26 05:43:29;;;;;;;6.90;3.97;;;2.40;99.90;;;;;;5084836;28;20506;-64
2021/04/26 05:45:54;;;;;;;9.40;3.85;;;2.50;99.90;;;;;;5084639;28;20489;-64
2021/04/26 05:48:20;;;;;;;7.03;3.47;;;2.60;99.90;;;;;;5083967;28;20416;-64
2021/04/26 05:50:46;;;;;;;6.15;3.42;;;2.70;99.90;;;;;;5084175;28;20044;-64
2021/04/26 05:53:12;;;;;;;6.05;3.20;;;2.80;99.90;;;;;;5083855;28;20058;-64
2021/04/26 05:55:38;;;;;;;10.07;3.97;;;2.90;99.90;;;;;;5084589;28;20485;-64
2021/04/26 05:58:03;;;;;;;6.93;3.58;;;3.00;99.90;;;;;;5084009;28;20052;-63
2021/04/26 06:00:29;;;;;;;7.47;3.47;;;3.10;99.90;;;;;;5084030;28;20096;-63
2021/04/26 06:02:55;;;;;;;12.15;4.22;;;3.30;99.90;;;;;;5069562;28;20128;-63
2021/04/26 06:05:21;;;;;;;6.50;3.20;;;3.30;99.90;;;;;;5087616;28;20070;-64
2021/04/26 06:07:47;;;;;;;8.30;3.60;;;3.40;99.90;;;;;;5087435;28;20059;-64
2021/04/26 06:10:13;;;;;;;10.88;3.88;;;3.50;99.90;;;;;;5083682;28;20063;-64
2021/04/26 06:12:39;;;;;;;11.52;4.32;;;3.60;99.90;;;;;;5077697;28;20078;-64
2021/04/26 06:15:05;;;;;;;10.32;4.63;;;3.60;99.90;;;;;;5087429;28;20096;-64
2021/04/26 06:17:31;;;;;;;8.68;3.95;;;3.70;99.90;;;;;;5088471;28;20145;-64
2021/04/26 06:19:57;;;;;;;5.85;3.20;;;3.90;99.90;;;;;;5087434;28;20507;-64
2021/04/26 06:22:23;;;;;;;7.88;3.50;;;4.00;99.90;;;;;;5087659;28;20040;-64
2021/04/26 06:24:48;;;;;;;11.85;4.80;;;4.00;99.90;;;;;;5087059;28;20083;-64
2021/04/26 06:27:14;;;;;;;10.32;3.50;;;4.10;99.90;;;;;;5087496;28;20045;-64
2021/04/26 06:29:40;;;;;;;7.18;3.67;;;4.10;99.90;;;;;;5087244;28;20052;-64
2021/04/26 06:32:06;;;;;;;9.95;3.78;;;4.20;99.90;;;;;;5087518;28;20053;-64
2021/04/26 06:34:32;;;;;;;9.65;3.63;;;4.20;99.90;;;;;;5086506;28;20040;-64
2021/04/26 06:36:58;;;;;;;9.80;3.97;;;4.30;99.90;;;;;;5087573;28;20087;-64
2021/04/26 06:39:24;;;;;;;7.20;3.70;;;4.40;99.90;;;;;;5088311;28;20511;-64
2021/04/26 06:41:50;;;;;;;10.75;3.90;;;4.40;99.90;;;;;;5087891;28;20040;-64
2021/04/26 06:44:15;;;;;;;7.57;3.67;;;4.50;99.90;;;;;;5087136;28;20067;-64
2021/04/26 06:46:41;;;;;;;10.88;3.60;;;4.50;99.90;;;;;;5087438;28;20044;-64
2021/04/26 06:49:07;;;;;;;18.40;4.85;;;4.70;99.90;;;;;;5086909;28;20094;-64
2021/04/26 06:51:33;;;;;;;8.13;3.60;;;4.70;99.90;;;;;;5086810;28;20055;-64
2021/04/26 06:53:58;;;;;;;8.38;3.40;;;4.80;99.90;;;;;;5086711;28;20044;-64
2021/04/26 06:56:24;;;;;;;6.47;3.55;;;4.90;99.90;;;;;;5086942;28;20516;-64
2021/04/26 06:58:50;;;;;;;9.27;3.80;;;5.00;99.90;;;;;;5087204;28;20055;-64
2021/04/26 07:01:16;;;;;;;10.20;3.92;;;5.10;99.90;;;;;;5087545;28;20056;-64
2021/04/26 07:03:42;;;;;;;10.60;3.55;;;5.10;99.90;;;;;;5087430;28;20207;-64
2021/04/26 07:06:07;;;;;;;10.10;3.65;;;5.30;99.90;;;;;;5083445;28;20055;-64
2021/04/26 07:08:33;;;;;;;4.90;3.03;;;5.30;99.90;;;;;;5087359;28;20447;-64
2021/04/26 07:10:59;;;;;;;8.77;3.25;;;5.40;99.90;;;;;;5086890;28;20048;-64
2021/04/26 07:13:26;;;;;;;10.50;3.20;;;5.50;99.90;;;;;;5085770;28;20054;-64
2021/04/26 07:15:51;;;;;;;14.13;4.32;;;5.50;99.90;;;;;;5080394;28;20044;-64
2021/04/26 07:18:17;;;;;;;9.70;3.20;;;5.60;99.90;;;;;;5086230;28;20054;-64
2021/04/26 07:20:43;;;;;;;8.80;3.45;;;5.70;99.90;;;;;;5086319;28;20052;-64
2021/04/26 07:23:09;;;;;;;7.00;3.40;;;5.70;99.90;;;;;;5083376;28;20131;-64
2021/04/26 07:25:35;;;;;;;4.43;2.78;;;5.90;99.90;;;;;;5086300;28;20045;-64
2021/04/26 07:28:01;;;;;;;8.82;3.20;;;5.90;99.90;;;;;;5085073;28;20057;-64
2021/04/26 07:30:27;;;;;;;5.35;2.90;;;6.00;99.90;;;;;;5086303;28;20044;-64
2021/04/26 07:32:52;;;;;;;6.60;2.63;;;6.20;99.60;;;;;;5086048;28;20049;-64
2021/04/26 07:35:19;;;;;;;6.95;2.42;;;6.30;99.50;;;;;;5084123;28;20047;-64
2021/04/26 07:37:45;;;;;;;6.90;2.35;;;6.30;98.60;;;;;;5078331;28;20105;-64
2021/04/26 07:40:13;;;;;;;6.07;2.28;;;6.40;96.50;;;;;;5086170;28;20508;-64
2021/04/26 07:42:41;;;;;;;7.68;2.60;;;6.40;96.70;;;;;;5085973;28;20098;-64
2021/04/26 07:45:08;;;;;;;5.97;2.30;;;6.40;97.60;;;;;;5085521;28;20052;-64
2021/04/26 07:47:34;;;;;;;7.05;2.83;;;6.50;97.90;;;;;;5085908;28;20060;-64
2021/04/26 07:50:00;;;;;;;5.50;2.42;;;6.60;97.70;;;;;;5086714;28;20074;-64
2021/04/26 07:52:26;;;;;;;3.63;2.40;;;6.60;97.20;;;;;;5085980;28;20102;-64
2021/04/26 07:54:52;;;;;;;6.65;2.10;;;6.70;96.90;;;;;;5085348;28;20066;-65
2021/04/26 07:57:18;;;;;;;6.43;3.30;;;6.70;95.90;;;;;;5085761;28;20041;-64
2021/04/26 07:59:43;;;;;;;5.55;2.10;;;6.90;94.20;;;;;;5085527;28;20048;-63
2021/04/26 08:02:09;;;;;;;6.35;2.28;;;6.90;94.50;;;;;;5084575;28;20051;-64
2021/04/26 08:04:35;;;;;;;5.97;2.25;;;7.00;93.70;;;;;;5085596;28;20056;-64
2021/04/26 08:07:01;;;;;;;7.65;2.85;;;7.00;93.50;;;;;;5084959;28;20045;-63
2021/04/26 08:09:26;;;;;;;7.05;2.60;;;7.10;93.30;;;;;;5085620;28;20139;-64
2021/04/26 08:11:52;;;;;;;3.67;2.10;;;7.20;92.10;;;;;;5086068;28;20047;-64
2021/04/26 08:14:18;;;;;;;3.60;1.98;;;7.20;92.00;;;;;;5084912;28;20079;-64
2021/04/26 08:16:44;;;;;;;5.95;2.60;;;7.20;91.70;;;;;;5085360;28;20636;-65
2021/04/26 08:19:10;;;;;;;5.78;2.22;;;7.40;91.60;;;;;;5085162;28;20100;-64
2021/04/26 08:21:39;;;;;;;9.50;2.22;;;7.40;91.40;;;;;;5085236;28;20083;-65
2021/04/26 08:24:05;;;;;;;6.25;2.05;;;7.50;90.00;;;;;;5084906;28;20068;-64
2021/04/26 08:26:31;;;;;;;6.43;2.55;;;7.50;86.20;;;;;;5084483;28;20570;-64
2021/04/26 08:28:57;;;;;;;6.35;3.20;;;7.60;88.90;;;;;;5084986;28;20100;-64
2021/04/26 08:31:23;;;;;;;5.93;2.60;;;7.60;90.30;;;;;;5085146;28;20048;-63
2021/04/26 08:33:48;;;;;;;4.47;1.95;;;7.70;88.50;;;;;;5084913;28;20108;-63
2021/04/26 08:36:15;;;;;;;7.90;2.05;;;7.80;89.20;;;;;;5084703;28;20044;-64
2021/04/26 08:38:41;;;;;;;3.80;1.60;;;7.80;87.30;;;;;;5085282;28;20075;-64
2021/04/26 08:41:13;;;;;;;6.93;2.40;;;7.90;84.40;;;;;;5084618;28;20187;-64
2021/04/26 08:43:40;;;;;;;4.15;2.08;;;7.90;85.00;;;;;;5085312;28;20040;-63
2021/04/26 08:46:06;;;;;;;6.28;1.92;;;8.00;84.10;;;;;;5071680;28;20431;-64
2021/04/26 08:48:32;;;;;;;4.43;1.80;;;8.00;82.00;;;;;;5085990;28;20064;-64
2021/04/26 08:51:00;;;;;;;4.97;2.03;;;8.00;80.50;;;;;;5085359;28;20056;-64
2021/04/26 08:53:26;;;;;;;4.03;1.60;;;8.00;80.80;;;;;;5084509;28;20060;-64
2021/04/26 08:55:52;;;;;;;7.47;1.90;;;8.10;80.40;;;;;;5084295;28;20150;-65
2021/04/26 08:58:17;;;;;;;4.32;1.80;;;8.00;81.20;;;;;;5084687;28;20045;-65
2021/04/26 09:00:43;;;;;;;5.75;1.90;;;7.90;81.60;;;;;;5084578;28;20050;-65
2021/04/26 09:03:09;;;;;;;4.88;2.00;;;7.90;82.20;;;;;;5071116;28;20053;-65
2021/04/26 09:05:38;;;;;;;5.38;1.90;;;7.80;82.80;;;;;;5084659;28;20063;-65
2021/04/26 09:08:06;;;;;;;7.10;2.35;;;7.90;83.80;;;;;;5084956;28;20181;-65
2021/04/26 09:10:40;;;;;;;3.45;2.00;;;7.90;82.50;;;;;;5085204;28;20055;-65
2021/04/26 09:13:35;;;;;;;4.65;2.00;;;7.90;81.50;;;;;;5084413;28;20055;-64
2021/04/26 09:16:19;;;;;;;3.80;1.75;;;7.90;81.10;;;;;;5084296;28;20048;-64
2021/04/26 09:19:03;;;;;;;5.13;2.00;;;8.00;80.60;;;;;;5084613;28;20055;-63
2021/04/26 09:21:34;;;;;;;17.95;2.40;;;8.10;80.80;;;;;;5084505;28;20052;-64
2021/04/26 09:24:19;;;;;;;4.90;1.85;;;8.10;83.40;;;;;;5084692;28;20056;-64
2021/04/26 09:26:50;;;;;;;3.92;1.80;;;8.30;83.10;;;;;;5072851;28;20210;-65
2021/04/26 09:29:25;;;;;;;5.82;1.80;;;8.40;79.50;;;;;;5084373;28;20048;-64
2021/04/26 09:32:21;;;;;;;5.72;1.77;;;8.50;76.30;;;;;;5084458;28;20062;-64
2021/04/26 09:34:51;;;;;;;5.88;1.85;;;8.50;77.70;;;;;;5083385;28;20049;-64
2021/04/26 09:37:23;;;;;;;5.20;1.55;;;8.60;76.90;;;;;;5087023;28;20071;-64
2021/04/26 09:40:01;;;;;;;28.45;3.03;;;8.70;74.90;;;;;;5067031;28;20049;-64
2021/04/26 09:42:57;;;;;;;3.53;1.75;;;8.70;76.90;;;;;;5088193;28;20048;-64
2021/04/26 09:45:37;;;;;;;4.68;1.70;;;8.90;74.30;;;;;;5045633;28;20072;-64
2021/04/26 09:48:21;;;;;;;5.63;1.30;;;9.10;76.30;;;;;;5046885;28;20046;-64
2021/04/26 09:50:51;;;;;;;1.95;1.38;;;9.10;74.80;;;;;;5030092;28;20049;-64
2021/04/26 09:53:17;;;;;;;193.47;14.27;;;9.20;66.00;;;;;;5046510;28;20077;-64
2021/04/26 09:55:42;;;;;;;3.22;1.27;;;9.10;65.20;;;;;;5045928;28;20081;-64
2021/04/26 09:58:09;;;;;;;2.50;1.40;;;9.10;66.00;;;;;;5046003;28;20041;-64
2021/04/26 10:00:35;;;;;;;4.60;1.65;;;9.10;67.90;;;;;;5045897;28;20049;-65
2021/04/26 10:03:02;;;;;;;2.30;1.58;;;9.20;67.80;;;;;;5046643;28;20080;-64
2021/04/26 10:05:28;;;;;;;5.18;1.60;;;9.10;70.70;;;;;;5045136;28;20048;-64
2021/04/26 10:07:55;;;;;;;4.43;1.77;;;9.10;69.90;;;;;;5045208;28;20061;-64
2021/04/26 10:10:21;;;;;;;4.30;1.63;;;9.30;70.90;;;;;;5046363;28;20533;-64
2021/04/26 10:12:47;;;;;;;2.53;1.55;;;9.50;69.80;;;;;;5045325;28;20056;-64
2021/04/26 10:15:14;;;;;;;6.13;1.40;;;9.50;69.10;;;;;;5045298;28;20103;-64
2021/04/26 10:17:42;;;;;;;4.13;1.50;;;9.60;68.90;;;;;;5045761;28;20057;-64
2021/04/26 10:20:09;;;;;;;2.55;1.50;;;9.70;66.30;;;;;;5045936;28;20069;-64
2021/04/26 10:22:40;;;;;;;2.75;1.70;;;10.00;62.50;;;;;;5081082;28;20552;-64
2021/04/26 10:25:07;;;;;;;3.33;1.75;;;9.90;63.00;;;;;;5087668;28;20080;-64
2021/04/26 10:27:37;;;;;;;5.20;1.60;;;9.70;64.50;;;;;;5082085;28;20044;-64
2021/04/26 10:30:12;;;;;;;3.78;1.60;;;9.70;66.50;;;;;;5062627;28;20070;-64
2021/04/26 10:32:57;;;;;;;4.32;1.48;;;9.80;66.30;;;;;;5074499;28;20055;-64
2021/04/26 10:35:25;;;;;;;4.25;1.50;;;10.00;65.80;;;;;;5087750;28;20041;-64
2021/04/26 10:37:52;;;;;;;124.63;10.10;;;10.10;65.40;;;;;;5087712;28;20048;-64
2021/04/26 10:40:23;;;;;;;4.07;1.30;;;10.10;62.70;;;;;;5087032;28;20033;-64
2021/04/26 10:42:53;;;;;;;5.18;1.50;;;10.20;62.00;;;;;;5087968;28;20048;-64
2021/04/26 10:45:22;;;;;;;3.78;1.50;;;10.40;58.80;;;;;;5065619;28;20053;-64
2021/04/26 10:47:54;;;;;;;2.08;1.40;;;10.40;58.80;;;;;;5077231;28;20104;-63
2021/04/26 10:50:20;;;;;;;2.97;1.50;;;10.40;60.00;;;;;;5087593;28;20045;-64
2021/04/26 10:52:55;;;;;;;6.00;2.33;;;10.30;57.80;;;;;;5086788;28;20061;-64
2021/04/26 10:55:24;;;;;;;3.13;1.40;;;10.40;58.10;;;;;;5086899;28;20064;-64
2021/04/26 10:57:54;;;;;;;5.10;1.73;;;10.40;61.30;;;;;;5086730;28;20040;-64
2021/04/26 11:00:20;;;;;;;3.00;1.58;;;10.70;55.40;;;;;;5066487;28;20045;-64
2021/04/26 11:03:00;;;;;;;9.48;2.08;;;10.60;54.10;;;;;;5080684;28;20060;-64
2021/04/26 11:05:30;;;;;;;5.20;2.05;;;10.50;54.80;;;;;;5075463;28;20049;-64
2021/04/26 11:08:01;;;;;;;3.03;1.98;;;10.30;55.40;;;;;;5085922;28;20048;-64
2021/04/26 11:10:31;;;;;;;2.58;1.70;;;10.40;61.60;;;;;;5086456;28;20048;-64
2021/04/26 11:12:59;;;;;;;4.70;1.95;;;10.50;63.50;;;;;;5087653;28;20044;-64
2021/04/26 11:15:26;;;;;;;3.83;1.70;;;10.60;62.00;;;;;;5087674;28;20066;-64
2021/04/26 11:17:53;;;;;;;3.45;1.65;;;10.70;60.60;;;;;;5087293;28;20055;-64
2021/04/26 11:20:26;;;;;;;5.25;2.05;;;10.60;61.80;;;;;;5087515;28;20068;-64
2021/04/26 11:22:54;;;;;;;4.57;2.20;;;10.70;67.00;;;;;;5087312;28;20052;-64
2021/04/26 11:25:40;;;;;;;3.33;1.70;;;11.00;68.40;;;;;;5086305;28;20114;-64
2021/04/26 11:28:12;;;;;;;4.35;2.10;;;11.20;67.30;;;;;;5086045;28;20131;-64
2021/04/26 11:30:49;;;;;;;5.07;1.60;;;11.30;67.20;;;;;;5086069;28;20040;-64
2021/04/26 11:33:18;;;;;;;4.43;1.80;;;11.20;65.00;;;;;;5072945;28;20761;-65
2021/04/26 11:36:07;;;;;;;4.57;1.85;;;11.30;62.10;;;;;;5086961;28;20105;-64
2021/04/26 11:38:35;;;;;;;3.67;1.80;;;11.50;63.70;;;;;;5075766;28;20054;-64
2021/04/26 11:41:01;;;;;;;11.98;2.40;;;11.50;62.20;;;;;;5061917;28;20045;-64
2021/04/26 11:43:27;;;;;;;4.13;1.98;;;11.50;63.80;;;;;;5086100;28;20072;-64
2021/04/26 11:45:53;;;;;;;5.22;1.80;;;11.40;63.00;;;;;;5085966;28;20044;-64
2021/04/26 11:48:21;;;;;;;3.97;1.77;;;11.50;65.40;;;;;;5084954;28;20055;-64
2021/04/26 11:50:47;;;;;;;5.47;2.03;;;11.70;64.50;;;;;;5040286;28;20192;-62
2021/04/26 11:53:26;;;;;;;3.70;1.67;;;11.60;65.00;;;;;;5048433;28;20041;-63
2021/04/26 11:55:52;;;;;;;2.42;2.10;;;11.60;60.40;;;;;;5064596;28;20112;-63
2021/04/26 11:58:27;;;;;;;2.97;1.58;;;11.60;62.50;;;;;;5065303;28;20075;-62
2021/04/26 12:01:05;;;;;;;3.55;1.60;;;11.70;63.40;;;;;;5067673;28;20048;-62
2021/04/26 12:03:31;;;;;;;1.90;1.67;;;11.70;59.90;;;;;;5082503;28;20077;-63
2021/04/26 12:06:01;;;;;;;4.20;1.90;;;11.70;58.50;;;;;;5077371;28;20152;-62
2021/04/26 12:08:42;;;;;;;5.13;1.97;;;11.60;58.50;;;;;;5081563;28;20075;-63
2021/04/26 12:11:16;;;;;;;4.55;1.77;;;11.60;59.60;;;;;;5080873;28;20301;-63
2021/04/26 12:13:42;;;;;;;5.93;2.03;;;11.70;62.10;;;;;;5078543;28;20052;-63
2021/04/26 12:16:08;;;;;;;4.40;2.03;;;11.90;63.20;;;;;;5078947;28;20051;-63
2021/04/26 12:18:35;;;;;;;3.13;2.17;;;12.00;63.50;;;;;;5080876;28;20040;-63
2021/04/26 12:21:01;;;;;;;3.03;1.90;;;12.00;64.00;;;;;;5059173;28;20053;-62
2021/04/26 12:23:26;;;;;;;4.68;1.90;;;12.00;62.20;;;;;;5076335;28;20094;-63
2021/04/26 12:25:52;;;;;;;2.35;1.70;;;12.10;61.10;;;;;;5060141;28;20072;-62
2021/04/26 12:28:19;;;;;;;3.30;1.80;;;12.10;61.40;;;;;;5070536;28;20045;-62
2021/04/26 12:30:51;;;;;;;5.60;1.95;;;12.10;61.00;;;;;;5074513;28;20146;-62
2021/04/26 12:33:20;;;;;;;4.25;1.63;;;12.30;61.40;;;;;;5082401;28;20041;-62
2021/04/26 12:35:46;;;;;;;5.63;2.10;;;12.50;58.40;;;;;;5077003;28;20044;-62
2021/04/26 12:38:12;;;;;;;5.43;2.10;;;12.50;58.50;;;;;;5085366;28;20048;-62
2021/04/26 12:40:40;;;;;;;8.00;1.92;;;12.60;59.60;;;;;;5071455;28;20079;-62
2021/04/26 12:43:11;;;;;;;5.50;2.00;;;12.80;59.00;;;;;;5070326;28;20041;-63
2021/04/26 12:45:43;;;;;;;5.53;2.40;;;12.80;58.30;;;;;;5068597;28;20135;-63
2021/04/26 12:48:11;;;;;;;7.28;2.00;;;12.70;57.00;;;;;;5084417;28;20066;-63
2021/04/26 12:50:41;;;;;;;6.88;2.30;;;12.80;56.70;;;;;;5065050;28;20524;-64
2021/04/26 12:53:09;;;;;;;6.53;2.72;;;12.80;57.50;;;;;;5082193;28;20059;-63
2021/04/26 12:55:40;;;;;;;5.30;2.00;;;12.70;54.90;;;;;;5081933;28;20052;-64
2021/04/26 12:58:24;;;;;;;4.97;2.40;;;12.80;56.70;;;;;;5088777;28;20044;-63